sensor_id;sensor_type;location;lat;lon;timestamp;temperature;humidity
3925;DHT22;1977;52.274;10.518;2023-11-18T00:01:18;7.20;99.90
3925;DHT22;1977;52.274;10.518;2023-11-18T00:03:45;7.10;99.90
3925;DHT22;1977;52.274;10.518;2023-11-18T00:06:13;7.00;99.90
3925;DHT22;1977;52.274;10.518;2023-11-18T00:08:40;7.00;99.90
3925;DHT22;1977;52.274;10.518;2023-11-18T00:11:07;6.90;99.90
3925;DHT22;1977;52.274;10.518;2023-11-18T00:13:36;6.90;99.90
3925;DHT22;1977;52.274;10.518;2023-11-18T00:16:04;6.90;99.90
3925;DHT22;1977;52.274;10.518;2023-11-18T00:18:31;6.80;99.90
3925;DHT22;1977;52.274;10.518;2023-11-18T00:20:59;6.70;99.90
3925;DHT22;1977;52.274;10.518;2023-11-18T00:23:27;6.70;99.90
3925;DHT22;1977;52.274;10.518;2023-11-18T00:25:54;6.60;99.90
3925;DHT22;1977;52.274;10.518;2023-11-18T00:28:21;6.50;99.90
3925;DHT22;1977;52.274;10.518;2023-11-18T00:30:48;6.50;99.90
3925;DHT22;1977;52.274;10.518;2023-11-18T00:33:15;6.50;99.90
3925;DHT22;1977;52.274;10.518;2023-11-18T00:35:42;6.50;99.90
3925;DHT22;1977;52.274;10.518;2023-11-18T00:38:10;6.50;99.90
3925;DHT22;1977;52.274;10.518;2023-11-18T00:40:38;6.60;99.90
3925;DHT22;1977;52.274;10.518;2023-11-18T00:43:05;6.50;99.90
3925;DHT22;1977;52.274;10.518;2023-11-18T00:45:33;6.60;99.90
3925;DHT22;1977;52.274;10.518;2023-11-18T00:48:00;6.60;99.90
3925;DHT22;1977;52.274;10.518;2023-11-18T00:50:27;6.60;99.90
3925;DHT22;1977;52.274;10.518;2023-11-18T00:52:53;6.50;99.90
3925;DHT22;1977;52.274;10.518;2023-11-18T00:55:20;6.50;99.90
3925;DHT22;1977;52.274;10.518;2023-11-18T00:57:48;6.50;99.90
3925;DHT22;1977;52.274;10.518;2023-11-18T01:00:15;6.50;99.90
3925;DHT22;1977;52.274;10.518;2023-11-18T01:02:47;6.50;99.90
3925;DHT22;1977;52.274;10.518;2023-11-18T01:05:15;6.50;99.90
3925;DHT22;1977;52.274;10.518;2023-11-18T01:07:41;6.60;99.90
3925;DHT22;1977;52.274;10.518;2023-11-18T01:10:09;6.60;99.90
3925;DHT22;1977;52.274;10.518;2023-11-18T01:12:36;6.60;99.90
3925;DHT22;1977;52.274;10.518;2023-11-18T01:15:05;6.60;99.90
3925;DHT22;1977;52.274;10.518;2023-11-18T01:17:32;6.50;99.90
3925;DHT22;1977;52.274;10.518;2023-11-18T01:19:59;6.60;99.90
3925;DHT22;1977;52.274;10.518;2023-11-18T01:22:26;6.50;99.90
3925;DHT22;1977;52.274;10.518;2023-11-18T01:24:53;6.70;99.90
3925;DHT22;1977;52.274;10.518;2023-11-18T01:27:20;6.50;99.90
3925;DHT22;1977;52.274;10.518;2023-11-18T01:29:48;6.50;99.90
3925;DHT22;1977;52.274;10.518;2023-11-18T01:32:16;6.40;99.90
3925;DHT22;1977;52.274;10.518;2023-11-18T01:34:44;6.30;99.90
3925;DHT22;1977;52.274;10.518;2023-11-18T01:39:45;6.30;99.90
3925;DHT22;1977;52.274;10.518;2023-11-18T01:42:11;6.20;99.90
3925;DHT22;1977;52.274;10.518;2023-11-18T01:44:38;6.20;99.90
3925;DHT22;1977;52.274;10.518;2023-11-18T01:47:07;6.20;99.90
3925;DHT22;1977;52.274;10.518;2023-11-18T01:49:38;6.20;99.90
3925;DHT22;1977;52.274;10.518;2023-11-18T01:52:05;6.30;99.90
3925;DHT22;1977;52.274;10.518;2023-11-18T01:54:34;6.30;99.90
3925;DHT22;1977;52.274;10.518;2023-11-18T01:57:04;6.40;99.90
3925;DHT22;1977;52.274;10.518;2023-11-18T01:59:31;6.50;99.90
3925;DHT22;1977;52.274;10.518;2023-11-18T02:01:59;6.50;99.90
3925;DHT22;1977;52.274;10.518;2023-11-18T02:04:27;6.50;99.90
3925;DHT22;1977;52.274;10.518;2023-11-18T02:06:56;6.50;99.90
3925;DHT22;1977;52.274;10.518;2023-11-18T02:09:24;6.70;99.90
3925;DHT22;1977;52.274;10.518;2023-11-18T02:11:58;6.60;99.90
3925;DHT22;1977;52.274;10.518;2023-11-18T02:14:27;6.70;99.90
3925;DHT22;1977;52.274;10.518;2023-11-18T02:16:56;6.70;99.90
3925;DHT22;1977;52.274;10.518;2023-11-18T02:19:26;6.70;99.90
3925;DHT22;1977;52.274;10.518;2023-11-18T02:21:57;6.80;99.90
3925;DHT22;1977;52.274;10.518;2023-11-18T02:24:25;6.80;99.90
3925;DHT22;1977;52.274;10.518;2023-11-18T02:26:56;6.80;99.90
3925;DHT22;1977;52.274;10.518;2023-11-18T02:29:24;6.90;99.90
3925;DHT22;1977;52.274;10.518;2023-11-18T02:31:54;6.90;99.90
3925;DHT22;1977;52.274;10.518;2023-11-18T02:34:27;6.90;99.90
3925;DHT22;1977;52.274;10.518;2023-11-18T02:36:57;7.20;99.90
3925;DHT22;1977;52.274;10.518;2023-11-18T02:39:30;7.00;99.90
3925;DHT22;1977;52.274;10.518;2023-11-18T02:42:01;7.00;99.90
3925;DHT22;1977;52.274;10.518;2023-11-18T02:44:30;7.10;99.90
3925;DHT22;1977;52.274;10.518;2023-11-18T02:46:58;7.10;99.90
3925;DHT22;1977;52.274;10.518;2023-11-18T02:49:25;7.10;99.90
3925;DHT22;1977;52.274;10.518;2023-11-18T02:51:53;7.10;99.90
3925;DHT22;1977;52.274;10.518;2023-11-18T02:54:21;7.10;99.90
3925;DHT22;1977;52.274;10.518;2023-11-18T02:56:47;7.10;99.90
3925;DHT22;1977;52.274;10.518;2023-11-18T02:59:16;7.10;99.90
3925;DHT22;1977;52.274;10.518;2023-11-18T03:01:43;7.10;99.90
3925;DHT22;1977;52.274;10.518;2023-11-18T03:04:10;7.30;99.90
3925;DHT22;1977;52.274;10.518;2023-11-18T03:06:36;7.10;99.90
3925;DHT22;1977;52.274;10.518;2023-11-18T03:09:04;7.20;99.90
3925;DHT22;1977;52.274;10.518;2023-11-18T03:11:33;7.20;99.90
3925;DHT22;1977;52.274;10.518;2023-11-18T03:13:59;7.20;99.90
3925;DHT22;1977;52.274;10.518;2023-11-18T03:16:27;7.10;99.90
3925;DHT22;1977;52.274;10.518;2023-11-18T03:18:54;7.30;99.90
3925;DHT22;1977;52.274;10.518;2023-11-18T03:21:21;7.30;99.90
3925;DHT22;1977;52.274;10.518;2023-11-18T03:23:48;7.10;99.90
3925;DHT22;1977;52.274;10.518;2023-11-18T03:26:15;7.40;99.90
3925;DHT22;1977;52.274;10.518;2023-11-18T03:28:41;7.10;99.90
3925;DHT22;1977;52.274;10.518;2023-11-18T03:31:08;7.40;99.90
3925;DHT22;1977;52.274;10.518;2023-11-18T03:33:38;7.10;99.90
3925;DHT22;1977;52.274;10.518;2023-11-18T03:36:06;7.10;99.90
3925;DHT22;1977;52.274;10.518;2023-11-18T03:38:34;7.10;99.90
3925;DHT22;1977;52.274;10.518;2023-11-18T03:41:00;7.10;99.90
3925;DHT22;1977;52.274;10.518;2023-11-18T03:43:27;7.10;99.90
3925;DHT22;1977;52.274;10.518;2023-11-18T03:45:54;7.10;99.90
3925;DHT22;1977;52.274;10.518;2023-11-18T03:48:22;7.10;99.90
3925;DHT22;1977;52.274;10.518;2023-11-18T03:50:50;7.10;99.90
3925;DHT22;1977;52.274;10.518;2023-11-18T03:53:18;7.00;99.90
3925;DHT22;1977;52.274;10.518;2023-11-18T03:55:45;7.00;99.90
3925;DHT22;1977;52.274;10.518;2023-11-18T03:58:11;7.00;99.90
3925;DHT22;1977;52.274;10.518;2023-11-18T04:00:38;7.30;99.90
3925;DHT22;1977;52.274;10.518;2023-11-18T04:03:05;7.10;99.90
3925;DHT22;1977;52.274;10.518;2023-11-18T04:05:33;7.30;99.90
3925;DHT22;1977;52.274;10.518;2023-11-18T04:08:01;7.00;99.90
3925;DHT22;1977;52.274;10.518;2023-11-18T04:10:28;7.20;99.90
3925;DHT22;1977;52.274;10.518;2023-11-18T04:12:55;7.00;99.90
3925;DHT22;1977;52.274;10.518;2023-11-18T04:15:22;7.00;99.90
3925;DHT22;1977;52.274;10.518;2023-11-18T04:17:49;7.00;99.90
3925;DHT22;1977;52.274;10.518;2023-11-18T04:20:17;7.00;99.90
3925;DHT22;1977;52.274;10.518;2023-11-18T04:22:44;7.00;99.90
3925;DHT22;1977;52.274;10.518;2023-11-18T04:25:13;7.30;99.90
3925;DHT22;1977;52.274;10.518;2023-11-18T04:27:40;6.90;99.90
3925;DHT22;1977;52.274;10.518;2023-11-18T04:30:08;6.90;99.90
3925;DHT22;1977;52.274;10.518;2023-11-18T04:32:35;6.90;99.90
3925;DHT22;1977;52.274;10.518;2023-11-18T04:35:02;7.10;99.90
3925;DHT22;1977;52.274;10.518;2023-11-18T04:37:32;6.90;99.90
3925;DHT22;1977;52.274;10.518;2023-11-18T04:39:59;6.90;99.90
3925;DHT22;1977;52.274;10.518;2023-11-18T04:42:27;6.90;99.90
3925;DHT22;1977;52.274;10.518;2023-11-18T04:44:55;6.90;99.90
3925;DHT22;1977;52.274;10.518;2023-11-18T04:47:22;6.80;99.90
3925;DHT22;1977;52.274;10.518;2023-11-18T04:49:50;6.80;99.90
3925;DHT22;1977;52.274;10.518;2023-11-18T04:52:17;6.80;99.90
3925;DHT22;1977;52.274;10.518;2023-11-18T04:54:44;6.80;99.90
3925;DHT22;1977;52.274;10.518;2023-11-18T04:57:13;7.00;99.90
3925;DHT22;1977;52.274;10.518;2023-11-18T04:59:41;6.90;99.90
3925;DHT22;1977;52.274;10.518;2023-11-18T05:02:09;6.60;99.90
3925;DHT22;1977;52.274;10.518;2023-11-18T05:04:35;6.60;99.90
3925;DHT22;1977;52.274;10.518;2023-11-18T05:07:02;6.50;99.90
3925;DHT22;1977;52.274;10.518;2023-11-18T05:09:31;6.50;99.90
3925;DHT22;1977;52.274;10.518;2023-11-18T05:12:00;6.50;99.90
3925;DHT22;1977;52.274;10.518;2023-11-18T05:14:27;6.70;99.90
3925;DHT22;1977;52.274;10.518;2023-11-18T05:16:55;6.50;99.90
3925;DHT22;1977;52.274;10.518;2023-11-18T05:19:22;6.50;99.90
3925;DHT22;1977;52.274;10.518;2023-11-18T05:21:49;6.40;99.90
3925;DHT22;1977;52.274;10.518;2023-11-18T05:24:16;6.50;99.90
3925;DHT22;1977;52.274;10.518;2023-11-18T05:26:42;6.60;99.90
3925;DHT22;1977;52.274;10.518;2023-11-18T05:29:09;6.60;99.90
3925;DHT22;1977;52.274;10.518;2023-11-18T05:31:41;6.60;99.90
3925;DHT22;1977;52.274;10.518;2023-11-18T05:34:09;6.60;99.90
3925;DHT22;1977;52.274;10.518;2023-11-18T05:36:38;6.70;99.90
3925;DHT22;1977;52.274;10.518;2023-11-18T05:39:06;6.70;99.90
3925;DHT22;1977;52.274;10.518;2023-11-18T05:41:34;6.70;99.90
3925;DHT22;1977;52.274;10.518;2023-11-18T05:44:05;6.70;99.90
3925;DHT22;1977;52.274;10.518;2023-11-18T05:46:34;6.80;99.90
3925;DHT22;1977;52.274;10.518;2023-11-18T05:49:02;6.70;99.90
3925;DHT22;1977;52.274;10.518;2023-11-18T05:51:33;6.60;99.90
3925;DHT22;1977;52.274;10.518;2023-11-18T05:54:01;6.80;99.90
3925;DHT22;1977;52.274;10.518;2023-11-18T05:56:27;6.80;99.90
3925;DHT22;1977;52.274;10.518;2023-11-18T05:58:54;6.60;99.90
3925;DHT22;1977;52.274;10.518;2023-11-18T06:01:21;6.90;99.90
3925;DHT22;1977;52.274;10.518;2023-11-18T06:03:48;6.70;99.90
3925;DHT22;1977;52.274;10.518;2023-11-18T06:06:16;6.70;99.90
3925;DHT22;1977;52.274;10.518;2023-11-18T06:08:44;6.70;99.90
3925;DHT22;1977;52.274;10.518;2023-11-18T06:11:13;6.70;99.90
3925;DHT22;1977;52.274;10.518;2023-11-18T06:13:41;6.70;99.90
3925;DHT22;1977;52.274;10.518;2023-11-18T06:16:15;6.80;99.90
3925;DHT22;1977;52.274;10.518;2023-11-18T06:18:42;6.80;99.90
3925;DHT22;1977;52.274;10.518;2023-11-18T06:21:11;7.00;99.90
3925;DHT22;1977;52.274;10.518;2023-11-18T06:23:38;6.80;99.90
3925;DHT22;1977;52.274;10.518;2023-11-18T06:26:07;6.80;99.90
3925;DHT22;1977;52.274;10.518;2023-11-18T06:28:36;6.80;99.90
3925;DHT22;1977;52.274;10.518;2023-11-18T06:31:02;6.80;99.90
3925;DHT22;1977;52.274;10.518;2023-11-18T06:33:29;6.80;99.90
3925;DHT22;1977;52.274;10.518;2023-11-18T06:35:55;6.90;99.90
3925;DHT22;1977;52.274;10.518;2023-11-18T06:38:22;6.80;99.90
3925;DHT22;1977;52.274;10.518;2023-11-18T06:40:50;6.80;99.90
3925;DHT22;1977;52.274;10.518;2023-11-18T06:43:19;6.80;99.90
3925;DHT22;1977;52.274;10.518;2023-11-18T06:45:47;6.80;99.90
3925;DHT22;1977;52.274;10.518;2023-11-18T06:48:14;6.80;99.90
3925;DHT22;1977;52.274;10.518;2023-11-18T06:50:45;6.80;99.90
3925;DHT22;1977;52.274;10.518;2023-11-18T06:53:12;6.80;99.90
3925;DHT22;1977;52.274;10.518;2023-11-18T06:55:38;6.80;99.90
3925;DHT22;1977;52.274;10.518;2023-11-18T06:58:05;6.80;99.90
3925;DHT22;1977;52.274;10.518;2023-11-18T07:00:33;6.70;99.90
3925;DHT22;1977;52.274;10.518;2023-11-18T07:03:01;6.80;99.90
3925;DHT22;1977;52.274;10.518;2023-11-18T07:05:27;6.80;99.90
3925;DHT22;1977;52.274;10.518;2023-11-18T07:07:54;6.80;99.90
3925;DHT22;1977;52.274;10.518;2023-11-18T07:10:21;6.80;99.90
3925;DHT22;1977;52.274;10.518;2023-11-18T07:12:48;6.80;99.90
3925;DHT22;1977;52.274;10.518;2023-11-18T07:15:14;6.90;99.90
3925;DHT22;1977;52.274;10.518;2023-11-18T07:17:43;6.80;99.90
3925;DHT22;1977;52.274;10.518;2023-11-18T07:20:11;6.80;99.90
3925;DHT22;1977;52.274;10.518;2023-11-18T07:22:39;6.80;99.90
3925;DHT22;1977;52.274;10.518;2023-11-18T07:25:06;6.80;99.90
3925;DHT22;1977;52.274;10.518;2023-11-18T07:27:35;6.80;99.90
3925;DHT22;1977;52.274;10.518;2023-11-18T07:30:02;6.90;99.90
3925;DHT22;1977;52.274;10.518;2023-11-18T07:32:31;6.90;99.90
3925;DHT22;1977;52.274;10.518;2023-11-18T07:35:00;6.90;99.90
3925;DHT22;1977;52.274;10.518;2023-11-18T07:37:27;7.00;99.90
3925;DHT22;1977;52.274;10.518;2023-11-18T07:39:58;6.70;99.90
3925;DHT22;1977;52.274;10.518;2023-11-18T07:42:26;6.70;99.90
3925;DHT22;1977;52.274;10.518;2023-11-18T07:44:52;6.60;99.90
3925;DHT22;1977;52.274;10.518;2023-11-18T07:47:20;6.70;99.90
3925;DHT22;1977;52.274;10.518;2023-11-18T07:49:47;6.80;99.90
3925;DHT22;1977;52.274;10.518;2023-11-18T07:52:15;6.80;99.90
3925;DHT22;1977;52.274;10.518;2023-11-18T07:54:42;6.80;99.90
3925;DHT22;1977;52.274;10.518;2023-11-18T07:57:09;6.80;99.90
3925;DHT22;1977;52.274;10.518;2023-11-18T07:59:36;6.90;99.90
3925;DHT22;1977;52.274;10.518;2023-11-18T08:02:03;7.00;99.90
3925;DHT22;1977;52.274;10.518;2023-11-18T08:04:34;7.00;99.90
3925;DHT22;1977;52.274;10.518;2023-11-18T08:07:01;7.00;99.90
3925;DHT22;1977;52.274;10.518;2023-11-18T08:09:31;7.10;99.90
3925;DHT22;1977;52.274;10.518;2023-11-18T08:11:58;7.20;99.90
3925;DHT22;1977;52.274;10.518;2023-11-18T08:14:25;7.20;99.90
3925;DHT22;1977;52.274;10.518;2023-11-18T08:16:52;7.20;99.90
3925;DHT22;1977;52.274;10.518;2023-11-18T08:19:21;7.40;99.90
3925;DHT22;1977;52.274;10.518;2023-11-18T08:21:48;7.40;99.90
3925;DHT22;1977;52.274;10.518;2023-11-18T08:24:15;7.30;99.90
3925;DHT22;1977;52.274;10.518;2023-11-18T08:26:43;7.30;99.90
3925;DHT22;1977;52.274;10.518;2023-11-18T08:29:10;7.30;99.90
3925;DHT22;1977;52.274;10.518;2023-11-18T08:31:38;7.30;99.90
3925;DHT22;1977;52.274;10.518;2023-11-18T08:34:06;7.30;99.90
3925;DHT22;1977;52.274;10.518;2023-11-18T08:36:32;7.30;99.90
3925;DHT22;1977;52.274;10.518;2023-11-18T08:38:59;7.20;99.90
3925;DHT22;1977;52.274;10.518;2023-11-18T08:41:26;7.30;99.90
3925;DHT22;1977;52.274;10.518;2023-11-18T08:43:54;7.30;99.90
3925;DHT22;1977;52.274;10.518;2023-11-18T08:46:21;7.30;99.90
3925;DHT22;1977;52.274;10.518;2023-11-18T08:48:48;7.30;99.90
3925;DHT22;1977;52.274;10.518;2023-11-18T08:51:15;7.40;99.90
3925;DHT22;1977;52.274;10.518;2023-11-18T08:53:42;7.50;99.90
3925;DHT22;1977;52.274;10.518;2023-11-18T08:56:09;7.50;99.90
3925;DHT22;1977;52.274;10.518;2023-11-18T08:58:43;7.50;99.90
3925;DHT22;1977;52.274;10.518;2023-11-18T09:01:11;7.50;99.90
3925;DHT22;1977;52.274;10.518;2023-11-18T09:03:41;7.60;99.90
3925;DHT22;1977;52.274;10.518;2023-11-18T09:06:14;7.60;99.90
3925;DHT22;1977;52.274;10.518;2023-11-18T09:08:45;7.90;99.90
3925;DHT22;1977;52.274;10.518;2023-11-18T09:11:13;7.70;99.90
3925;DHT22;1977;52.274;10.518;2023-11-18T09:13:42;7.80;99.90
3925;DHT22;1977;52.274;10.518;2023-11-18T09:16:11;7.70;99.90
3925;DHT22;1977;52.274;10.518;2023-11-18T09:18:40;7.70;99.90
3925;DHT22;1977;52.274;10.518;2023-11-18T09:21:08;7.70;99.90
3925;DHT22;1977;52.274;10.518;2023-11-18T09:23:41;7.70;99.90
3925;DHT22;1977;52.274;10.518;2023-11-18T09:26:08;7.70;99.90
3925;DHT22;1977;52.274;10.518;2023-11-18T09:28:36;7.70;99.90
3925;DHT22;1977;52.274;10.518;2023-11-18T09:31:04;7.70;99.90
3925;DHT22;1977;52.274;10.518;2023-11-18T09:33:33;7.80;99.90
3925;DHT22;1977;52.274;10.518;2023-11-18T09:36:00;7.90;99.90
3925;DHT22;1977;52.274;10.518;2023-11-18T09:38:28;8.10;99.90
3925;DHT22;1977;52.274;10.518;2023-11-18T09:40:56;8.10;99.90
3925;DHT22;1977;52.274;10.518;2023-11-18T09:43:26;8.10;99.90
3925;DHT22;1977;52.274;10.518;2023-11-18T09:46:03;8.10;99.90
3925;DHT22;1977;52.274;10.518;2023-11-18T09:48:31;8.20;99.90
3925;DHT22;1977;52.274;10.518;2023-11-18T09:51:07;8.30;99.90
3925;DHT22;1977;52.274;10.518;2023-11-18T09:53:37;8.30;99.90
3925;DHT22;1977;52.274;10.518;2023-11-18T09:56:07;8.20;99.90
3925;DHT22;1977;52.274;10.518;2023-11-18T09:58:50;8.10;99.90
3925;DHT22;1977;52.274;10.518;2023-11-18T10:01:24;8.10;99.90
3925;DHT22;1977;52.274;10.518;2023-11-18T10:03:55;8.20;99.90
3925;DHT22;1977;52.274;10.518;2023-11-18T10:06:23;8.40;99.90
3925;DHT22;1977;52.274;10.518;2023-11-18T10:08:53;8.20;99.90
3925;DHT22;1977;52.274;10.518;2023-11-18T10:11:20;8.10;99.90
3925;DHT22;1977;52.274;10.518;2023-11-18T10:13:48;8.10;99.90
3925;DHT22;1977;52.274;10.518;2023-11-18T10:16:15;7.90;99.90
3925;DHT22;1977;52.274;10.518;2023-11-18T10:18:45;7.90;99.90
3925;DHT22;1977;52.274;10.518;2023-11-18T10:21:16;7.90;99.90
3925;DHT22;1977;52.274;10.518;2023-11-18T10:23:59;7.90;99.90
3925;DHT22;1977;52.274;10.518;2023-11-18T10:26:27;7.90;99.90
3925;DHT22;1977;52.274;10.518;2023-11-18T10:28:55;8.00;99.90
3925;DHT22;1977;52.274;10.518;2023-11-18T10:31:32;8.00;99.90
3925;DHT22;1977;52.274;10.518;2023-11-18T10:34:01;8.00;99.90
3925;DHT22;1977;52.274;10.518;2023-11-18T10:36:30;8.10;99.90
3925;DHT22;1977;52.274;10.518;2023-11-18T10:38:58;8.00;99.90
3925;DHT22;1977;52.274;10.518;2023-11-18T10:41:29;8.10;99.90
3925;DHT22;1977;52.274;10.518;2023-11-18T10:44:05;8.10;99.90
3925;DHT22;1977;52.274;10.518;2023-11-18T10:46:33;8.20;99.90
3925;DHT22;1977;52.274;10.518;2023-11-18T10:49:00;8.20;99.90
3925;DHT22;1977;52.274;10.518;2023-11-18T10:51:28;8.30;99.90
3925;DHT22;1977;52.274;10.518;2023-11-18T10:54:00;8.30;99.90
3925;DHT22;1977;52.274;10.518;2023-11-18T10:56:29;8.30;99.90
3925;DHT22;1977;52.274;10.518;2023-11-18T10:58:57;8.40;99.90
3925;DHT22;1977;52.274;10.518;2023-11-18T11:01:29;8.50;99.90
3925;DHT22;1977;52.274;10.518;2023-11-18T11:03:57;8.50;99.90
3925;DHT22;1977;52.274;10.518;2023-11-18T11:06:24;8.60;99.90
3925;DHT22;1977;52.274;10.518;2023-11-18T11:08:51;8.60;99.90
3925;DHT22;1977;52.274;10.518;2023-11-18T11:11:21;8.70;99.90
3925;DHT22;1977;52.274;10.518;2023-11-18T11:13:50;8.70;99.90
3925;DHT22;1977;52.274;10.518;2023-11-18T11:16:23;8.70;99.90
3925;DHT22;1977;52.274;10.518;2023-11-18T11:18:55;8.70;99.90
3925;DHT22;1977;52.274;10.518;2023-11-18T11:21:26;8.70;99.90
3925;DHT22;1977;52.274;10.518;2023-11-18T11:24:00;8.80;99.90
3925;DHT22;1977;52.274;10.518;2023-11-18T11:26:42;8.70;99.90
3925;DHT22;1977;52.274;10.518;2023-11-18T11:29:22;8.70;99.90
3925;DHT22;1977;52.274;10.518;2023-11-18T11:31:59;8.70;99.90
3925;DHT22;1977;52.274;10.518;2023-11-18T11:34:29;8.80;99.90
3925;DHT22;1977;52.274;10.518;2023-11-18T11:36:59;8.80;99.90
3925;DHT22;1977;52.274;10.518;2023-11-18T11:39:27;8.80;99.90
3925;DHT22;1977;52.274;10.518;2023-11-18T11:41:57;8.80;99.90
3925;DHT22;1977;52.274;10.518;2023-11-18T11:44:24;8.80;99.90
3925;DHT22;1977;52.274;10.518;2023-11-18T11:46:55;8.90;99.90
3925;DHT22;1977;52.274;10.518;2023-11-18T11:49:26;8.80;99.90
3925;DHT22;1977;52.274;10.518;2023-11-18T11:51:59;8.80;99.90
3925;DHT22;1977;52.274;10.518;2023-11-18T11:54:34;8.90;99.90
3925;DHT22;1977;52.274;10.518;2023-11-18T11:57:05;8.90;99.90
3925;DHT22;1977;52.274;10.518;2023-11-18T11:59:36;8.90;99.90
3925;DHT22;1977;52.274;10.518;2023-11-18T12:02:22;8.90;99.90
3925;DHT22;1977;52.274;10.518;2023-11-18T12:04:51;8.90;99.90
3925;DHT22;1977;52.274;10.518;2023-11-18T12:07:19;8.80;99.90
3925;DHT22;1977;52.274;10.518;2023-11-18T12:09:48;9.10;99.90
3925;DHT22;1977;52.274;10.518;2023-11-18T12:12:21;8.90;99.90
3925;DHT22;1977;52.274;10.518;2023-11-18T12:14:52;8.80;99.90
3925;DHT22;1977;52.274;10.518;2023-11-18T12:17:22;8.70;99.90
3925;DHT22;1977;52.274;10.518;2023-11-18T12:19:50;8.60;99.90
3925;DHT22;1977;52.274;10.518;2023-11-18T12:22:24;8.70;99.90
3925;DHT22;1977;52.274;10.518;2023-11-18T12:27:58;8.70;99.90
3925;DHT22;1977;52.274;10.518;2023-11-18T12:30:41;8.70;99.90
3925;DHT22;1977;52.274;10.518;2023-11-18T12:33:18;8.70;99.90
3925;DHT22;1977;52.274;10.518;2023-11-18T12:36:26;8.70;99.90
3925;DHT22;1977;52.274;10.518;2023-11-18T12:39:38;8.80;99.90
3925;DHT22;1977;52.274;10.518;2023-11-18T12:42:09;8.70;99.90
3925;DHT22;1977;52.274;10.518;2023-11-18T12:45:04;8.70;99.90
3925;DHT22;1977;52.274;10.518;2023-11-18T12:47:42;8.70;99.90
3925;DHT22;1977;52.274;10.518;2023-11-18T12:50:11;8.70;99.90
3925;DHT22;1977;52.274;10.518;2023-11-18T12:52:49;8.60;99.90
3925;DHT22;1977;52.274;10.518;2023-11-18T12:55:16;8.70;99.90
3925;DHT22;1977;52.274;10.518;2023-11-18T12:57:46;8.70;99.90
3925;DHT22;1977;52.274;10.518;2023-11-18T13:00:16;8.90;99.90
3925;DHT22;1977;52.274;10.518;2023-11-18T13:02:52;8.60;99.90
3925;DHT22;1977;52.274;10.518;2023-11-18T13:05:19;8.60;99.90
3925;DHT22;1977;52.274;10.518;2023-11-18T13:07:46;8.70;99.90
3925;DHT22;1977;52.274;10.518;2023-11-18T13:10:14;9.00;99.90
3925;DHT22;1977;52.274;10.518;2023-11-18T13:12:41;8.80;99.90
3925;DHT22;1977;52.274;10.518;2023-11-18T13:15:10;8.80;99.90
3925;DHT22;1977;52.274;10.518;2023-11-18T13:17:39;8.80;99.90
3925;DHT22;1977;52.274;10.518;2023-11-18T13:20:13;8.90;99.90
3925;DHT22;1977;52.274;10.518;2023-11-18T13:22:42;8.90;99.90
3925;DHT22;1977;52.274;10.518;2023-11-18T13:25:09;8.90;99.90
3925;DHT22;1977;52.274;10.518;2023-11-18T13:27:35;8.80;99.90
3925;DHT22;1977;52.274;10.518;2023-11-18T13:30:05;8.70;99.90
3925;DHT22;1977;52.274;10.518;2023-11-18T13:32:40;8.80;99.90
3925;DHT22;1977;52.274;10.518;2023-11-18T13:35:07;8.80;99.90
3925;DHT22;1977;52.274;10.518;2023-11-18T13:37:35;8.80;99.90
3925;DHT22;1977;52.274;10.518;2023-11-18T13:40:01;8.70;99.90
3925;DHT22;1977;52.274;10.518;2023-11-18T13:42:31;8.70;99.90
3925;DHT22;1977;52.274;10.518;2023-11-18T13:44:59;8.70;99.90
3925;DHT22;1977;52.274;10.518;2023-11-18T13:47:27;8.60;99.90
3925;DHT22;1977;52.274;10.518;2023-11-18T13:49:55;8.60;99.90
3925;DHT22;1977;52.274;10.518;2023-11-18T13:52:24;8.70;99.90
3925;DHT22;1977;52.274;10.518;2023-11-18T13:54:51;8.70;99.90
3925;DHT22;1977;52.274;10.518;2023-11-18T13:57:21;8.70;99.90
3925;DHT22;1977;52.274;10.518;2023-11-18T13:59:49;8.70;99.90
3925;DHT22;1977;52.274;10.518;2023-11-18T14:02:16;8.70;99.90
3925;DHT22;1977;52.274;10.518;2023-11-18T14:04:42;8.70;99.90
3925;DHT22;1977;52.274;10.518;2023-11-18T14:07:15;8.70;99.90
3925;DHT22;1977;52.274;10.518;2023-11-18T14:09:43;8.80;99.90
3925;DHT22;1977;52.274;10.518;2023-11-18T14:12:11;8.80;99.90
3925;DHT22;1977;52.274;10.518;2023-11-18T14:14:38;8.60;99.90
3925;DHT22;1977;52.274;10.518;2023-11-18T14:17:06;8.60;99.90
3925;DHT22;1977;52.274;10.518;2023-11-18T14:19:35;8.60;99.90
3925;DHT22;1977;52.274;10.518;2023-11-18T14:22:03;8.70;99.90
3925;DHT22;1977;52.274;10.518;2023-11-18T14:24:33;8.60;99.90
3925;DHT22;1977;52.274;10.518;2023-11-18T14:27:00;8.60;99.90
3925;DHT22;1977;52.274;10.518;2023-11-18T14:29:26;8.60;99.90
3925;DHT22;1977;52.274;10.518;2023-11-18T14:31:54;8.50;99.90
3925;DHT22;1977;52.274;10.518;2023-11-18T14:34:20;8.50;99.90
3925;DHT22;1977;52.274;10.518;2023-11-18T14:36:47;8.60;99.90
3925;DHT22;1977;52.274;10.518;2023-11-18T14:39:14;8.50;99.90
3925;DHT22;1977;52.274;10.518;2023-11-18T14:41:45;8.50;99.90
3925;DHT22;1977;52.274;10.518;2023-11-18T14:44:12;8.50;99.90
3925;DHT22;1977;52.274;10.518;2023-11-18T14:46:38;8.50;99.90
3925;DHT22;1977;52.274;10.518;2023-11-18T14:49:06;8.40;99.90
3925;DHT22;1977;52.274;10.518;2023-11-18T14:51:33;8.50;99.90
3925;DHT22;1977;52.274;10.518;2023-11-18T14:54:01;8.40;99.90
3925;DHT22;1977;52.274;10.518;2023-11-18T14:56:28;8.10;99.90
3925;DHT22;1977;52.274;10.518;2023-11-18T14:58:56;8.40;99.90
3925;DHT22;1977;52.274;10.518;2023-11-18T15:01:23;8.40;99.90
3925;DHT22;1977;52.274;10.518;2023-11-18T15:03:51;8.50;99.90
3925;DHT22;1977;52.274;10.518;2023-11-18T15:06:24;8.40;99.90
3925;DHT22;1977;52.274;10.518;2023-11-18T15:08:51;8.40;99.90
3925;DHT22;1977;52.274;10.518;2023-11-18T15:11:21;8.40;99.90
3925;DHT22;1977;52.274;10.518;2023-11-18T15:13:48;8.40;99.90
3925;DHT22;1977;52.274;10.518;2023-11-18T15:16:16;8.30;99.90
3925;DHT22;1977;52.274;10.518;2023-11-18T15:18:44;8.30;99.90
3925;DHT22;1977;52.274;10.518;2023-11-18T15:21:13;8.30;99.90
3925;DHT22;1977;52.274;10.518;2023-11-18T15:23:40;8.40;99.90
3925;DHT22;1977;52.274;10.518;2023-11-18T15:26:08;8.40;99.90
3925;DHT22;1977;52.274;10.518;2023-11-18T15:28:35;8.30;99.90
3925;DHT22;1977;52.274;10.518;2023-11-18T15:31:02;8.30;99.90
3925;DHT22;1977;52.274;10.518;2023-11-18T15:33:30;8.30;99.90
3925;DHT22;1977;52.274;10.518;2023-11-18T15:35:57;8.40;99.90
3925;DHT22;1977;52.274;10.518;2023-11-18T15:38:24;8.40;99.90
3925;DHT22;1977;52.274;10.518;2023-11-18T15:40:51;8.30;99.90
3925;DHT22;1977;52.274;10.518;2023-11-18T15:43:18;8.30;99.90
3925;DHT22;1977;52.274;10.518;2023-11-18T15:45:45;8.20;99.90
3925;DHT22;1977;52.274;10.518;2023-11-18T15:48:12;8.20;99.90
3925;DHT22;1977;52.274;10.518;2023-11-18T15:50:41;8.20;99.90
3925;DHT22;1977;52.274;10.518;2023-11-18T15:53:07;8.10;99.90
3925;DHT22;1977;52.274;10.518;2023-11-18T15:55:38;8.10;99.90
3925;DHT22;1977;52.274;10.518;2023-11-18T15:58:07;8.10;99.90
3925;DHT22;1977;52.274;10.518;2023-11-18T16:00:35;8.10;99.90
3925;DHT22;1977;52.274;10.518;2023-11-18T16:03:02;8.20;99.90
3925;DHT22;1977;52.274;10.518;2023-11-18T16:05:30;8.10;99.90
3925;DHT22;1977;52.274;10.518;2023-11-18T16:08:00;8.10;99.90
3925;DHT22;1977;52.274;10.518;2023-11-18T16:10:27;8.20;99.90
3925;DHT22;1977;52.274;10.518;2023-11-18T16:12:57;8.20;99.90
3925;DHT22;1977;52.274;10.518;2023-11-18T16:15:24;8.20;99.90
3925;DHT22;1977;52.274;10.518;2023-11-18T16:17:52;8.20;99.90